Time;durP1;ratioP1;P1;durP2;ratioP2;P2;SDS_P1;SDS_P2;PMS_P1;PMS_P2;Temp;Humidity;BMP_temperature;BMP_pressure;BME280_temperature;BME280_humidity;BME280_pressure;Samples;Min_cycle;Max_cycle;Signal;HPM_P1;HPM_P2
2022/06/06 00:00:45;;;;;;;15.85;12.50;;;;;;;;;;5141699;27;21044;-20
2022/06/06 00:03:14;;;;;;;17.13;14.43;;;;;;;;;;5148464;27;20231;-20
2022/06/06 00:05:42;;;;;;;18.08;14.63;;;;;;;;;;5153165;27;20231;-20
2022/06/06 00:08:11;;;;;;;20.17;15.77;;;;;;;;;;5146125;27;20349;-20
2022/06/06 00:10:39;;;;;;;18.92;15.60;;;;;;;;;;5132749;27;20234;-20
2022/06/06 00:13:06;;;;;;;19.92;15.48;;;;;;;;;;5129658;27;20285;-20
2022/06/06 00:15:35;;;;;;;19.45;15.18;;;;;;;;;;5151355;27;20709;-20
2022/06/06 00:18:03;;;;;;;19.65;15.05;;;;;;;;;;5152001;27;20242;-20
2022/06/06 00:20:30;;;;;;;18.35;13.95;;;;;;;;;;5153265;27;20226;-20
2022/06/06 00:22:58;;;;;;;21.75;16.25;;;;;;;;;;5152070;27;20226;-20
2022/06/06 00:25:25;;;;;;;21.17;16.02;;;;;;;;;;5153278;27;20708;-21
2022/06/06 00:27:53;;;;;;;21.80;17.05;;;;;;;;;;5152784;27;20230;-20
2022/06/06 00:30:20;;;;;;;23.95;16.88;;;;;;;;;;5145930;27;20321;-20
2022/06/06 00:35:34;;;;;;;23.88;16.52;;;;;;;;;;5146710;27;20522;-20
2022/06/06 00:38:01;;;;;;;23.60;15.90;;;;;;;;;;5152571;27;20229;-20
2022/06/06 00:40:30;;;;;;;22.30;16.25;;;;;;;;;;5151519;27;20234;-20
2022/06/06 00:42:57;;;;;;;23.58;15.80;;;;;;;;;;5152741;27;20231;-21
2022/06/06 00:45:26;;;;;;;22.10;16.00;;;;;;;;;;5152697;27;21623;-20
2022/06/06 00:47:56;;;;;;;20.75;15.15;;;;;;;;;;5151158;27;20223;-20
2022/06/06 00:50:25;;;;;;;22.45;15.30;;;;;;;;;;5164802;27;20960;-20
2022/06/06 00:52:53;;;;;;;20.65;14.45;;;;;;;;;;5152849;27;20235;-20
2022/06/06 00:55:21;;;;;;;20.38;15.18;;;;;;;;;;5152868;27;20227;-20
2022/06/06 00:57:50;;;;;;;21.65;14.18;;;;;;;;;;5152708;27;20223;-20
2022/06/06 01:00:18;;;;;;;21.02;14.55;;;;;;;;;;5152555;27;20238;-20
2022/06/06 01:02:46;;;;;;;19.13;14.80;;;;;;;;;;5151560;27;20227;-20
2022/06/06 01:05:14;;;;;;;21.38;15.63;;;;;;;;;;5152245;27;20222;-20
2022/06/06 01:07:42;;;;;;;21.10;15.02;;;;;;;;;;5152976;27;20237;-21
2022/06/06 01:10:10;;;;;;;21.48;15.63;;;;;;;;;;5152330;27;20226;-21
2022/06/06 01:12:37;;;;;;;21.33;15.25;;;;;;;;;;5151778;27;20241;-21
2022/06/06 01:15:05;;;;;;;19.80;14.68;;;;;;;;;;5151019;27;20239;-21
2022/06/06 01:17:35;;;;;;;20.00;15.63;;;;;;;;;;5160023;27;20693;-20
2022/06/06 01:20:03;;;;;;;21.70;15.68;;;;;;;;;;5158045;27;20242;-20
2022/06/06 01:22:37;;;;;;;23.20;15.30;;;;;;;;;;5152327;27;20233;-20
2022/06/06 01:25:12;;;;;;;21.50;15.48;;;;;;;;;;5160716;27;20226;-21
2022/06/06 01:27:41;;;;;;;21.90;15.57;;;;;;;;;;5143010;27;20245;-20
2022/06/06 01:30:11;;;;;;;19.92;14.25;;;;;;;;;;5146980;27;20234;-21
2022/06/06 01:32:39;;;;;;;19.42;14.40;;;;;;;;;;5157864;27;20231;-20
2022/06/06 01:35:08;;;;;;;20.17;15.02;;;;;;;;;;5149371;27;20237;-20
2022/06/06 01:37:36;;;;;;;20.50;15.10;;;;;;;;;;5147926;27;20222;-20
2022/06/06 01:40:04;;;;;;;18.95;15.30;;;;;;;;;;5158839;27;20230;-21
2022/06/06 01:42:34;;;;;;;21.77;15.38;;;;;;;;;;5163917;27;20229;-20
2022/06/06 01:45:02;;;;;;;20.00;14.48;;;;;;;;;;5160700;27;20981;-20
2022/06/06 01:47:31;;;;;;;19.73;14.57;;;;;;;;;;5151730;27;20690;-20
2022/06/06 01:49:59;;;;;;;20.40;15.23;;;;;;;;;;5151836;27;20233;-21
2022/06/06 01:52:26;;;;;;;20.05;14.68;;;;;;;;;;5152226;27;20758;-20
2022/06/06 01:54:54;;;;;;;18.23;14.32;;;;;;;;;;5143360;27;20226;-20
2022/06/06 01:57:21;;;;;;;19.73;14.13;;;;;;;;;;5172325;27;20218;-20
2022/06/06 01:59:48;;;;;;;18.27;14.05;;;;;;;;;;5161430;27;20238;-20
2022/06/06 02:02:16;;;;;;;18.13;13.60;;;;;;;;;;5153734;27;20231;-20
2022/06/06 02:04:44;;;;;;;21.30;14.95;;;;;;;;;;5168953;27;20237;-21
2022/06/06 02:07:12;;;;;;;17.52;13.80;;;;;;;;;;5172598;27;20234;-21
2022/06/06 02:09:39;;;;;;;18.80;13.88;;;;;;;;;;5168253;27;20989;-20
2022/06/06 02:12:09;;;;;;;18.08;13.52;;;;;;;;;;5172618;27;20249;-20
2022/06/06 02:14:37;;;;;;;17.70;13.45;;;;;;;;;;5172855;27;20233;-20
2022/06/06 02:17:06;;;;;;;17.67;14.00;;;;;;;;;;5158343;27;20229;-20
2022/06/06 02:19:34;;;;;;;17.83;13.63;;;;;;;;;;5172425;27;20245;-21
2022/06/06 02:22:02;;;;;;;17.25;13.13;;;;;;;;;;5151593;22;20235;-19
2022/06/06 02:24:31;;;;;;;18.23;13.23;;;;;;;;;;5131350;27;20223;-19
2022/06/06 02:26:58;;;;;;;15.95;12.68;;;;;;;;;;5132178;27;21135;-19
2022/06/06 02:29:26;;;;;;;14.60;12.02;;;;;;;;;;5134768;27;20234;-19
2022/06/06 02:31:53;;;;;;;17.10;12.00;;;;;;;;;;5128819;27;20224;-19
2022/06/06 02:34:20;;;;;;;17.65;12.27;;;;;;;;;;5135019;27;20235;-19
2022/06/06 02:36:48;;;;;;;16.77;12.20;;;;;;;;;;5135085;27;20709;-19
2022/06/06 02:39:16;;;;;;;15.07;12.18;;;;;;;;;;5133941;27;20243;-19
2022/06/06 02:41:44;;;;;;;13.50;11.10;;;;;;;;;;5134257;27;20224;-19
2022/06/06 02:44:11;;;;;;;15.55;11.25;;;;;;;;;;5145408;27;20222;-19
2022/06/06 02:46:39;;;;;;;16.60;11.75;;;;;;;;;;5131081;27;20242;-19
2022/06/06 02:49:07;;;;;;;13.65;10.65;;;;;;;;;;5133691;27;20229;-19
2022/06/06 02:51:34;;;;;;;13.10;11.05;;;;;;;;;;5133480;27;20229;-19
2022/06/06 02:54:02;;;;;;;15.25;10.68;;;;;;;;;;5132825;27;20227;-19
2022/06/06 02:56:30;;;;;;;13.40;10.30;;;;;;;;;;5133074;27;20698;-20
2022/06/06 02:59:05;;;;;;;14.82;10.73;;;;;;;;;;5133609;27;20242;-19
2022/06/06 03:01:33;;;;;;;13.38;10.10;;;;;;;;;;5133125;27;20639;-19
2022/06/06 03:04:00;;;;;;;11.65;10.20;;;;;;;;;;5133410;27;20226;-19
2022/06/06 03:06:29;;;;;;;13.70;10.15;;;;;;;;;;5132256;27;20704;-19
2022/06/06 03:09:02;;;;;;;12.25;9.98;;;;;;;;;;5133541;27;20227;-19
2022/06/06 03:11:35;;;;;;;14.57;10.30;;;;;;;;;;5133150;27;20235;-19
2022/06/06 03:14:10;;;;;;;12.95;9.50;;;;;;;;;;5133337;27;20798;-19
2022/06/06 03:22:14;;;;;;;11.52;9.18;;;;;;;;;;5122512;27;20243;-19
2022/06/06 03:24:44;;;;;;;11.77;9.27;;;;;;;;;;5133201;27;20230;-19
2022/06/06 03:27:16;;;;;;;13.15;10.02;;;;;;;;;;5132697;27;20242;-19
2022/06/06 03:29:47;;;;;;;12.52;9.32;;;;;;;;;;5117758;27;20231;-19
2022/06/06 03:32:20;;;;;;;15.25;10.25;;;;;;;;;;5120266;27;20224;-19
2022/06/06 03:34:51;;;;;;;14.15;9.82;;;;;;;;;;5132524;27;20239;-19
2022/06/06 03:37:20;;;;;;;14.13;10.13;;;;;;;;;;5118046;27;20223;-19
2022/06/06 03:39:49;;;;;;;15.07;10.80;;;;;;;;;;5132200;27;20231;-19
2022/06/06 03:42:19;;;;;;;16.38;11.57;;;;;;;;;;5133121;27;20767;-19
2022/06/06 03:44:50;;;;;;;11.93;10.25;;;;;;;;;;5133062;27;20689;-19
2022/06/06 03:47:21;;;;;;;13.80;11.13;;;;;;;;;;5132611;27;20232;-19
2022/06/06 03:49:50;;;;;;;15.75;11.23;;;;;;;;;;5131995;27;20986;-19
2022/06/06 03:52:20;;;;;;;15.13;10.88;;;;;;;;;;5132450;27;20227;-19
2022/06/06 03:54:50;;;;;;;15.43;10.82;;;;;;;;;;5121967;27;20243;-19
2022/06/06 03:57:19;;;;;;;14.30;10.95;;;;;;;;;;5129091;27;20234;-19
2022/06/06 03:59:47;;;;;;;16.58;11.80;;;;;;;;;;5137714;27;20977;-19
2022/06/06 04:02:17;;;;;;;14.30;10.98;;;;;;;;;;5134357;27;20777;-19
2022/06/06 04:04:44;;;;;;;17.85;10.70;;;;;;;;;;5133009;27;20704;-19
2022/06/06 04:07:12;;;;;;;14.55;11.30;;;;;;;;;;5132230;27;20228;-19
2022/06/06 04:09:39;;;;;;;16.45;11.45;;;;;;;;;;5132818;27;20957;-19
2022/06/06 04:12:10;;;;;;;14.70;10.95;;;;;;;;;;5131870;27;21076;-19
2022/06/06 04:14:42;;;;;;;15.63;11.00;;;;;;;;;;5132301;27;20237;-19
2022/06/06 04:17:13;;;;;;;14.15;11.57;;;;;;;;;;5127060;27;20778;-19
2022/06/06 04:19:43;;;;;;;12.88;10.82;;;;;;;;;;5127171;27;20228;-19
2022/06/06 04:22:12;;;;;;;14.63;11.18;;;;;;;;;;5133263;27;20246;-19
2022/06/06 04:24:48;;;;;;;14.45;10.80;;;;;;;;;;5148802;27;20702;-19
2022/06/06 04:27:20;;;;;;;16.15;11.63;;;;;;;;;;5132085;27;21202;-19
2022/06/06 04:29:56;;;;;;;14.32;11.13;;;;;;;;;;5151052;27;20227;-19
2022/06/06 04:32:35;;;;;;;18.30;12.18;;;;;;;;;;5152503;27;20226;-19
2022/06/06 04:35:06;;;;;;;16.85;10.82;;;;;;;;;;5148692;27;20980;-19
2022/06/06 04:37:35;;;;;;;16.25;11.80;;;;;;;;;;5152797;27;20233;-19
2022/06/06 04:40:04;;;;;;;14.23;10.57;;;;;;;;;;5152687;27;20234;-19
2022/06/06 04:42:34;;;;;;;14.35;11.20;;;;;;;;;;5152362;27;20242;-19
2022/06/06 04:45:09;;;;;;;13.95;11.13;;;;;;;;;;5151197;27;20222;-19
2022/06/06 04:47:37;;;;;;;17.50;10.98;;;;;;;;;;5131766;27;20655;-19
2022/06/06 04:50:04;;;;;;;12.00;10.35;;;;;;;;;;5144871;27;20233;-19
2022/06/06 04:52:32;;;;;;;15.55;10.75;;;;;;;;;;5152234;27;20226;-19
2022/06/06 04:55:00;;;;;;;14.80;10.80;;;;;;;;;;5151823;27;20732;-19
2022/06/06 04:57:27;;;;;;;11.40;10.15;;;;;;;;;;5152494;27;20226;-19
2022/06/06 04:59:54;;;;;;;13.70;10.73;;;;;;;;;;5141701;27;20227;-19
2022/06/06 05:02:23;;;;;;;14.27;11.20;;;;;;;;;;5143144;27;20709;-19
2022/06/06 05:04:51;;;;;;;14.95;10.25;;;;;;;;;;5152152;27;20223;-19
2022/06/06 05:07:23;;;;;;;15.20;10.93;;;;;;;;;;5151761;27;20598;-19
2022/06/06 05:09:55;;;;;;;15.20;10.80;;;;;;;;;;5143973;27;20780;-19
2022/06/06 05:12:32;;;;;;;13.05;10.88;;;;;;;;;;5145990;27;20235;-19
2022/06/06 05:15:08;;;;;;;15.60;11.65;;;;;;;;;;5140316;27;20238;-19
2022/06/06 05:17:44;;;;;;;16.92;12.35;;;;;;;;;;5143484;27;20360;-19
2022/06/06 05:20:18;;;;;;;17.90;13.43;;;;;;;;;;5152214;27;20229;-19
2022/06/06 05:23:00;;;;;;;19.63;14.10;;;;;;;;;;5151707;27;20244;-19
2022/06/06 05:25:31;;;;;;;21.13;14.60;;;;;;;;;;5152163;27;20226;-19
2022/06/06 05:28:13;;;;;;;18.40;14.23;;;;;;;;;;5150802;27;20991;-19
2022/06/06 05:30:44;;;;;;;19.77;13.70;;;;;;;;;;5146956;27;20226;-19
2022/06/06 05:33:14;;;;;;;19.73;13.45;;;;;;;;;;5142629;27;20234;-19
2022/06/06 05:35:59;;;;;;;22.13;13.60;;;;;;;;;;5151909;27;20237;-19
2022/06/06 05:38:31;;;;;;;19.27;13.90;;;;;;;;;;5133881;27;20306;-19
2022/06/06 05:40:59;;;;;;;19.88;13.70;;;;;;;;;;5152006;27;20242;-19
2022/06/06 05:43:28;;;;;;;19.25;13.40;;;;;;;;;;5137135;27;20674;-19
2022/06/06 05:46:00;;;;;;;18.75;13.05;;;;;;;;;;5151633;27;20231;-19
2022/06/06 05:48:33;;;;;;;18.63;13.68;;;;;;;;;;5151816;27;20852;-19
2022/06/06 05:51:05;;;;;;;20.27;14.07;;;;;;;;;;5147286;27;20237;-19
2022/06/06 05:53:36;;;;;;;19.25;13.93;;;;;;;;;;5151795;27;20974;-19
2022/06/06 05:56:24;;;;;;;19.20;13.27;;;;;;;;;;5138134;27;20229;-19
2022/06/06 05:58:58;;;;;;;21.77;14.32;;;;;;;;;;5151216;27;20242;-19
2022/06/06 06:01:29;;;;;;;20.20;14.35;;;;;;;;;;5150873;27;21008;-19
2022/06/06 06:04:03;;;;;;;17.48;13.45;;;;;;;;;;5151537;27;20234;-20
2022/06/06 06:06:33;;;;;;;20.55;14.27;;;;;;;;;;5147895;27;20230;-19
2022/06/06 06:09:04;;;;;;;20.00;13.85;;;;;;;;;;5150384;27;20231;-19
2022/06/06 06:11:35;;;;;;;19.98;13.20;;;;;;;;;;5144519;27;20238;-19
2022/06/06 06:14:07;;;;;;;21.48;13.02;;;;;;;;;;5149306;27;20270;-19
2022/06/06 06:16:36;;;;;;;15.82;12.30;;;;;;;;;;5147407;27;20219;-19
2022/06/06 06:19:08;;;;;;;17.02;12.82;;;;;;;;;;5149867;27;20226;-19
2022/06/06 06:21:37;;;;;;;21.70;12.75;;;;;;;;;;5148307;27;20243;-19
2022/06/06 06:24:05;;;;;;;17.35;11.27;;;;;;;;;;5149454;27;20242;-19
2022/06/06 06:26:32;;;;;;;16.02;11.07;;;;;;;;;;5147023;27;20224;-19
2022/06/06 06:29:00;;;;;;;15.00;11.20;;;;;;;;;;5153047;27;20223;-19
2022/06/06 06:31:32;;;;;;;13.40;11.05;;;;;;;;;;5147217;27;20230;-19
2022/06/06 06:34:04;;;;;;;13.95;10.77;;;;;;;;;;5150219;27;20235;-19
2022/06/06 06:36:38;;;;;;;15.30;10.18;;;;;;;;;;5146158;27;20345;-19
2022/06/06 06:39:09;;;;;;;13.20;9.95;;;;;;;;;;5149616;27;20237;-19
2022/06/06 06:41:41;;;;;;;12.85;10.00;;;;;;;;;;5150772;27;20244;-19
2022/06/06 06:44:08;;;;;;;14.52;9.20;;;;;;;;;;5150452;27;20237;-19
2022/06/06 06:46:37;;;;;;;10.52;8.05;;;;;;;;;;5150529;27;20677;-19
2022/06/06 06:49:11;;;;;;;11.52;8.38;;;;;;;;;;5149587;27;21052;-19
2022/06/06 06:51:41;;;;;;;13.07;8.13;;;;;;;;;;5150637;27;20238;-19
2022/06/06 06:54:15;;;;;;;11.00;8.10;;;;;;;;;;5147325;27;20982;-19
2022/06/06 06:56:46;;;;;;;9.68;6.95;;;;;;;;;;5153694;27;20242;-19
2022/06/06 06:59:14;;;;;;;12.15;6.82;;;;;;;;;;5149628;27;20716;-19
2022/06/06 07:08:32;;;;;;;9.30;6.95;;;;;;;;;;5146020;27;20677;-19
2022/06/06 07:10:08;;;;;;;11.88;7.03;;;;;;;;;;5153056;27;20335;-19
2022/06/06 07:12:44;;;;;;;14.27;7.13;;;;;;;;;;5149918;27;20236;-19
2022/06/06 07:15:14;;;;;;;12.98;7.15;;;;;;;;;;5151428;27;20222;-19
2022/06/06 07:17:42;;;;;;;13.98;7.53;;;;;;;;;;5145256;27;22301;-19
2022/06/06 07:20:10;;;;;;;9.00;7.50;;;;;;;;;;5147433;27;20231;-19
2022/06/06 07:25:37;;;;;;;16.55;8.13;;;;;;;;;;5110951;27;20478;-19
2022/06/06 07:28:05;;;;;;;12.98;7.40;;;;;;;;;;5150715;27;20549;-19
2022/06/06 07:30:33;;;;;;;16.02;6.80;;;;;;;;;;5150830;27;20227;-19
2022/06/06 07:33:05;;;;;;;12.80;6.45;;;;;;;;;;5149691;27;20238;-18
2022/06/06 07:35:35;;;;;;;7.85;6.50;;;;;;;;;;5153711;27;20218;-19
2022/06/06 07:38:16;;;;;;;13.93;6.00;;;;;;;;;;5154041;27;20222;-19
2022/06/06 07:40:47;;;;;;;12.38;5.85;;;;;;;;;;5153107;27;20277;-18
2022/06/06 07:43:23;;;;;;;9.60;6.10;;;;;;;;;;5153360;27;20658;-19
2022/06/06 07:45:51;;;;;;;9.00;5.93;;;;;;;;;;5132925;27;20227;-19
2022/06/06 07:48:34;;;;;;;10.90;6.18;;;;;;;;;;5137360;27;21183;-19
2022/06/06 07:51:04;;;;;;;10.20;5.30;;;;;;;;;;5150597;27;20225;-19
2022/06/06 07:53:37;;;;;;;14.90;5.75;;;;;;;;;;5139111;27;20314;-19
2022/06/06 07:56:06;;;;;;;11.55;5.28;;;;;;;;;;5139852;27;20226;-19
2022/06/06 07:58:37;;;;;;;10.18;5.10;;;;;;;;;;5153664;27;20218;-19
2022/06/06 08:01:06;;;;;;;7.95;5.57;;;;;;;;;;5153049;27;20340;-19
2022/06/06 08:03:37;;;;;;;10.70;4.80;;;;;;;;;;5152936;27;20245;-19
2022/06/06 08:06:18;;;;;;;5.30;4.80;;;;;;;;;;5153186;27;20223;-19
2022/06/06 08:09:00;;;;;;;7.28;4.60;;;;;;;;;;5153505;27;20234;-19
2022/06/06 08:11:32;;;;;;;6.30;4.32;;;;;;;;;;5138361;27;20978;-19
2022/06/06 08:14:00;;;;;;;6.13;4.65;;;;;;;;;;5152388;27;20230;-19
2022/06/06 08:16:29;;;;;;;7.10;4.55;;;;;;;;;;5148115;27;20227;-21
2022/06/06 08:19:08;;;;;;;6.03;4.85;;;;;;;;;;5153318;27;20223;-19
2022/06/06 08:21:36;;;;;;;6.10;4.50;;;;;;;;;;5138846;27;21069;-20
2022/06/06 08:24:06;;;;;;;7.43;4.40;;;;;;;;;;5152328;27;20237;-20
2022/06/06 08:26:55;;;;;;;5.47;4.20;;;;;;;;;;5153095;27;20235;-19
2022/06/06 08:29:23;;;;;;;6.82;4.60;;;;;;;;;;5138531;27;20281;-18
2022/06/06 08:31:50;;;;;;;5.78;4.15;;;;;;;;;;5152890;27;20697;-20
2022/06/06 08:34:18;;;;;;;5.78;4.22;;;;;;;;;;5152323;27;20278;-20
2022/06/06 08:36:52;;;;;;;7.80;3.75;;;;;;;;;;5153044;27;20230;-20
2022/06/06 08:39:22;;;;;;;4.75;3.90;;;;;;;;;;5152753;27;20229;-18
2022/06/06 08:41:55;;;;;;;4.80;3.28;;;;;;;;;;5152527;27;20230;-18
2022/06/06 08:44:37;;;;;;;4.20;3.22;;;;;;;;;;5152817;27;20235;-18
2022/06/06 08:47:07;;;;;;;3.92;2.90;;;;;;;;;;5151793;27;20229;-18
2022/06/06 08:52:52;;;;;;;3.90;2.63;;;;;;;;;;5147503;27;20231;-18
2022/06/06 08:55:34;;;;;;;2.72;2.40;;;;;;;;;;5052748;27;20369;-18
2022/06/06 08:58:10;;;;;;;4.38;2.70;;;;;;;;;;5144445;27;20226;-18
2022/06/06 09:00:43;;;;;;;3.15;2.50;;;;;;;;;;5139135;27;20398;-18
2022/06/06 09:03:27;;;;;;;9.80;3.10;;;;;;;;;;5149250;27;20320;-18
2022/06/06 09:06:23;;;;;;;9.73;2.72;;;;;;;;;;5146198;27;20227;-18
2022/06/06 09:09:11;;;;;;;4.30;2.78;;;;;;;;;;5147981;27;20223;-18
2022/06/06 09:11:42;;;;;;;9.18;3.00;;;;;;;;;;5145093;27;20235;-18
2022/06/06 09:14:27;;;;;;;6.85;2.63;;;;;;;;;;5133534;27;20429;-20
2022/06/06 09:17:09;;;;;;;7.93;2.50;;;;;;;;;;5142296;27;20620;-21
2022/06/06 09:19:48;;;;;;;9.20;3.10;;;;;;;;;;5137584;27;20241;-21
2022/06/06 09:22:20;;;;;;;3.83;3.35;;;;;;;;;;5138577;27;20253;-20
2022/06/06 09:25:05;;;;;;;3.17;2.88;;;;;;;;;;5141300;27;20367;-21
2022/06/06 09:27:51;;;;;;;3.35;2.90;;;;;;;;;;5140804;27;20223;-21
2022/06/06 09:30:24;;;;;;;3.20;2.70;;;;;;;;;;5132636;27;20235;-21
2022/06/06 09:33:05;;;;;;;4.57;2.97;;;;;;;;;;5140228;27;20235;-21
2022/06/06 09:35:39;;;;;;;3.22;2.80;;;;;;;;;;5132875;27;20235;-21
2022/06/06 09:38:11;;;;;;;7.05;2.83;;;;;;;;;;5145052;27;21255;-21
2022/06/06 09:40:44;;;;;;;9.32;3.40;;;;;;;;;;5141149;27;20245;-21
2022/06/06 09:43:14;;;;;;;9.57;2.77;;;;;;;;;;5149183;27;20414;-21
2022/06/06 09:45:47;;;;;;;8.05;2.72;;;;;;;;;;5151067;27;20238;-18
2022/06/06 09:48:30;;;;;;;9.13;3.17;;;;;;;;;;5138714;27;20235;-18
2022/06/06 09:51:24;;;;;;;7.55;2.30;;;;;;;;;;5142415;27;20242;-18
2022/06/06 10:00:08;;;;;;;18.90;3.03;;;;;;;;;;5146888;27;20719;-21
2022/06/06 10:02:45;;;;;;;10.27;2.58;;;;;;;;;;5138114;27;20241;-18
2022/06/06 10:05:29;;;;;;;8.48;2.42;;;;;;;;;;5144352;27;20315;-21
2022/06/06 10:08:15;;;;;;;9.30;2.58;;;;;;;;;;5147909;27;21107;-21
2022/06/06 10:10:47;;;;;;;8.40;2.05;;;;;;;;;;5149089;27;20228;-19
2022/06/06 10:13:20;;;;;;;12.90;2.75;;;;;;;;;;5134960;27;20239;-19
2022/06/06 10:15:52;;;;;;;18.42;3.75;;;;;;;;;;5148655;27;20230;-19
2022/06/06 10:18:25;;;;;;;30.08;3.80;;;;;;;;;;5127670;27;20231;-19
2022/06/06 10:20:58;;;;;;;25.02;3.92;;;;;;;;;;5133280;27;20713;-18
2022/06/06 10:23:29;;;;;;;23.10;3.30;;;;;;;;;;5141155;27;20249;-19
2022/06/06 10:26:11;;;;;;;19.85;2.78;;;;;;;;;;5148116;27;20999;-18
2022/06/06 10:28:44;;;;;;;16.63;2.90;;;;;;;;;;5139111;27;20246;-18
2022/06/06 10:31:14;;;;;;;12.15;2.58;;;;;;;;;;5147962;27;20231;-18
2022/06/06 10:33:49;;;;;;;17.58;3.30;;;;;;;;;;5134364;27;20354;-18
2022/06/06 10:36:20;;;;;;;19.98;3.38;;;;;;;;;;5143451;27;20233;-19
2022/06/06 10:39:03;;;;;;;27.88;3.42;;;;;;;;;;5141555;27;20258;-19
2022/06/06 10:41:34;;;;;;;28.73;4.03;;;;;;;;;;5136541;27;20223;-18
2022/06/06 10:44:08;;;;;;;16.58;3.20;;;;;;;;;;5137987;27;20234;-19
2022/06/06 10:46:36;;;;;;;27.40;3.40;;;;;;;;;;5137218;27;20228;-19
2022/06/06 10:49:07;;;;;;;18.20;3.40;;;;;;;;;;5127282;27;20234;-20
2022/06/06 10:51:46;;;;;;;16.80;2.88;;;;;;;;;;5129826;27;20731;-19
2022/06/06 10:54:33;;;;;;;13.60;2.72;;;;;;;;;;5137952;27;20700;-19
2022/06/06 10:57:12;;;;;;;21.20;3.58;;;;;;;;;;5130342;27;20243;-19
2022/06/06 10:59:49;;;;;;;13.63;2.50;;;;;;;;;;5140351;27;20609;-19
2022/06/06 11:02:31;;;;;;;33.47;3.95;;;;;;;;;;5145214;27;20234;-19
2022/06/06 11:05:23;;;;;;;22.45;4.03;;;;;;;;;;5140299;27;20280;-19
2022/06/06 11:08:11;;;;;;;17.98;3.45;;;;;;;;;;5072768;27;20240;-19
2022/06/06 11:10:47;;;;;;;19.48;3.58;;;;;;;;;;5131417;27;20682;-19
2022/06/06 11:13:21;;;;;;;16.65;3.55;;;;;;;;;;5143142;27;20241;-19
2022/06/06 11:15:55;;;;;;;11.68;3.38;;;;;;;;;;5140872;27;20219;-19
2022/06/06 11:18:34;;;;;;;19.70;3.42;;;;;;;;;;5142888;27;20230;-19
2022/06/06 11:21:07;;;;;;;9.73;3.15;;;;;;;;;;5139170;27;20237;-19
2022/06/06 11:23:41;;;;;;;12.30;3.10;;;;;;;;;;5145096;27;20255;-19
2022/06/06 11:26:14;;;;;;;17.10;3.67;;;;;;;;;;5143222;27;20235;-19
2022/06/06 11:29:05;;;;;;;12.27;2.47;;;;;;;;;;5142856;27;20238;-19
2022/06/06 11:31:47;;;;;;;9.07;2.70;;;;;;;;;;5070165;27;20540;-20
2022/06/06 11:34:38;;;;;;;15.63;3.88;;;;;;;;;;5132500;27;20252;-19
2022/06/06 11:37:32;;;;;;;15.38;3.00;;;;;;;;;;5140950;27;20238;-19
2022/06/06 11:40:05;;;;;;;6.10;2.50;;;;;;;;;;5140239;27;20234;-19
2022/06/06 11:42:48;;;;;;;8.18;2.80;;;;;;;;;;5147414;27;20230;-19
2022/06/06 11:45:23;;;;;;;5.07;2.72;;;;;;;;;;5148873;27;20706;-19
2022/06/06 11:47:57;;;;;;;6.03;2.58;;;;;;;;;;5133406;27;20997;-19
2022/06/06 11:50:29;;;;;;;15.77;2.88;;;;;;;;;;5131345;27;20234;-19
2022/06/06 11:53:15;;;;;;;6.07;2.80;;;;;;;;;;5134796;27;20219;-19
2022/06/06 11:56:10;;;;;;;8.80;3.65;;;;;;;;;;5153660;27;20242;-19
2022/06/06 11:58:56;;;;;;;6.93;3.20;;;;;;;;;;5103997;27;20264;-19
2022/06/06 12:01:35;;;;;;;9.48;2.83;;;;;;;;;;5140390;27;20222;-19
2022/06/06 12:04:25;;;;;;;5.75;2.80;;;;;;;;;;5153157;27;20227;-19
2022/06/06 12:07:12;;;;;;;5.97;2.80;;;;;;;;;;5110295;27;20261;-19
2022/06/06 12:09:42;;;;;;;4.90;2.40;;;;;;;;;;5153343;27;21040;-19
2022/06/06 12:12:19;;;;;;;7.57;2.63;;;;;;;;;;5153994;27;20758;-19
2022/06/06 12:15:01;;;;;;;3.45;2.92;;;;;;;;;;5148643;27;20219;-19
2022/06/06 12:17:35;;;;;;;4.53;2.55;;;;;;;;;;5115729;27;20230;-19
2022/06/06 12:20:23;;;;;;;6.18;2.70;;;;;;;;;;5149690;27;20229;-19
2022/06/06 12:22:58;;;;;;;9.45;2.80;;;;;;;;;;5139191;27;21001;-19
2022/06/06 12:25:46;;;;;;;4.43;2.65;;;;;;;;;;5148862;27;20445;-19
2022/06/06 12:28:31;;;;;;;3.38;2.22;;;;;;;;;;5152132;27;20233;-19
2022/06/06 12:31:04;;;;;;;5.47;2.53;;;;;;;;;;5132921;27;20235;-19
2022/06/06 12:33:32;;;;;;;7.65;2.70;;;;;;;;;;5151638;27;20234;-19
2022/06/06 12:36:00;;;;;;;4.20;2.45;;;;;;;;;;5146244;27;20223;-19
2022/06/06 12:38:30;;;;;;;4.38;2.45;;;;;;;;;;5149213;27;20231;-19
2022/06/06 12:41:01;;;;;;;5.88;1.83;;;;;;;;;;5153174;27;20234;-19
2022/06/06 12:43:34;;;;;;;4.45;1.95;;;;;;;;;;5153096;27;20227;-19
2022/06/06 12:46:05;;;;;;;5.72;2.40;;;;;;;;;;5144883;27;21273;-19
2022/06/06 12:48:40;;;;;;;3.75;1.80;;;;;;;;;;5146703;27;20222;-19
2022/06/06 12:51:12;;;;;;;2.63;1.95;;;;;;;;;;5153472;27;20228;-19
2022/06/06 12:53:58;;;;;;;4.78;1.73;;;;;;;;;;5152801;27;20229;-19
2022/06/06 12:56:37;;;;;;;2.40;1.92;;;;;;;;;;5143072;27;20231;-19
2022/06/06 12:59:18;;;;;;;2.80;2.05;;;;;;;;;;5139587;27;20230;-19
2022/06/06 13:01:50;;;;;;;3.70;1.88;;;;;;;;;;5150681;27;20357;-19
2022/06/06 13:04:38;;;;;;;5.55;1.85;;;;;;;;;;5152806;27;20777;-19
2022/06/06 13:07:10;;;;;;;2.72;1.67;;;;;;;;;;5146374;27;20226;-19
2022/06/06 13:09:58;;;;;;;6.55;1.50;;;;;;;;;;5137994;27;20237;-19
2022/06/06 13:12:31;;;;;;;2.95;1.40;;;;;;;;;;5143859;27;20704;-19
2022/06/06 13:15:02;;;;;;;3.13;1.65;;;;;;;;;;5145402;27;20234;-19
2022/06/06 13:17:31;;;;;;;2.45;1.63;;;;;;;;;;5147518;27;20245;-19
2022/06/06 13:20:03;;;;;;;3.30;1.65;;;;;;;;;;5152988;27;20600;-19
2022/06/06 13:22:36;;;;;;;2.63;1.65;;;;;;;;;;5152239;27;20238;-19
2022/06/06 13:25:22;;;;;;;1.48;1.27;;;;;;;;;;5145209;27;20231;-19
2022/06/06 13:27:56;;;;;;;2.55;1.50;;;;;;;;;;5145677;27;20236;-19
2022/06/06 13:30:24;;;;;;;2.28;1.65;;;;;;;;;;5142963;27;20227;-19
2022/06/06 13:33:16;;;;;;;4.40;1.75;;;;;;;;;;5147128;27;20406;-19
2022/06/06 13:35:44;;;;;;;3.53;1.50;;;;;;;;;;5153011;27;20414;-19
2022/06/06 13:38:15;;;;;;;4.28;1.85;;;;;;;;;;5153302;27;20227;-19
2022/06/06 13:40:43;;;;;;;5.22;1.63;;;;;;;;;;5138075;27;20115;-19
2022/06/06 13:43:16;;;;;;;3.45;1.60;;;;;;;;;;5160256;27;20272;-19
2022/06/06 13:45:46;;;;;;;7.95;1.58;;;;;;;;;;5145506;27;20470;-19
2022/06/06 13:48:41;;;;;;;5.85;1.80;;;;;;;;;;5133352;27;21271;-19
2022/06/06 13:51:11;;;;;;;4.18;1.60;;;;;;;;;;5128481;27;20459;-19
2022/06/06 13:53:43;;;;;;;6.88;1.73;;;;;;;;;;5131105;27;20429;-19
2022/06/06 13:56:15;;;;;;;6.80;1.53;;;;;;;;;;5147035;27;20411;-19
2022/06/06 13:58:48;;;;;;;5.20;1.45;;;;;;;;;;5137741;27;20227;-19
2022/06/06 14:01:19;;;;;;;8.85;1.70;;;;;;;;;;5139998;27;20693;-19
2022/06/06 14:03:53;;;;;;;5.13;1.20;;;;;;;;;;5135460;27;20246;-19
2022/06/06 14:06:27;;;;;;;3.20;1.40;;;;;;;;;;5132860;27;20319;-19
2022/06/06 14:08:55;;;;;;;5.80;1.50;;;;;;;;;;5125630;27;20413;-19
2022/06/06 14:11:33;;;;;;;8.02;1.55;;;;;;;;;;5132721;27;20702;-19
2022/06/06 14:14:02;;;;;;;5.18;1.23;;;;;;;;;;5125878;27;20231;-19
2022/06/06 14:16:49;;;;;;;3.45;1.48;;;;;;;;;;5124040;27;20702;-19
2022/06/06 14:19:18;;;;;;;4.63;1.85;;;;;;;;;;5138398;27;20709;-19
2022/06/06 14:21:48;;;;;;;7.47;1.60;;;;;;;;;;5142924;27;20437;-19
2022/06/06 14:24:16;;;;;;;2.58;1.38;;;;;;;;;;5146629;27;20226;-19
2022/06/06 14:26:50;;;;;;;5.67;1.30;;;;;;;;;;5137214;27;20421;-19
2022/06/06 14:29:26;;;;;;;4.07;1.35;;;;;;;;;;5146171;27;20222;-19
2022/06/06 14:31:54;;;;;;;4.60;1.30;;;;;;;;;;5149397;27;20231;-19
2022/06/06 14:34:28;;;;;;;3.90;1.40;;;;;;;;;;5152754;27;20804;-19
2022/06/06 14:37:10;;;;;;;4.13;1.20;;;;;;;;;;5148280;27;20235;-19
2022/06/06 14:39:37;;;;;;;3.33;1.20;;;;;;;;;;5140560;27;20230;-19
2022/06/06 14:42:06;;;;;;;3.90;1.23;;;;;;;;;;5154357;27;20219;-19
2022/06/06 14:44:36;;;;;;;5.45;1.33;;;;;;;;;;5150561;27;20244;-19
2022/06/06 14:47:08;;;;;;;5.47;1.58;;;;;;;;;;5138846;27;20701;-19
2022/06/06 14:49:35;;;;;;;4.75;1.40;;;;;;;;;;5147482;27;21037;-19
2022/06/06 14:52:08;;;;;;;3.70;1.40;;;;;;;;;;5148535;27;20223;-19
2022/06/06 14:54:35;;;;;;;4.40;1.20;;;;;;;;;;5153780;27;20295;-19
2022/06/06 14:57:05;;;;;;;2.28;1.20;;;;;;;;;;5140494;27;20232;-19
2022/06/06 14:59:35;;;;;;;2.30;1.13;;;;;;;;;;5150831;27;20223;-19
2022/06/06 15:02:10;;;;;;;5.20;1.23;;;;;;;;;;5149470;27;20309;-19
2022/06/06 15:04:37;;;;;;;6.35;1.17;;;;;;;;;;5140032;27;20415;-19
2022/06/06 15:07:05;;;;;;;5.45;1.00;;;;;;;;;;5154226;27;20243;-19
2022/06/06 15:09:35;;;;;;;7.38;1.60;;;;;;;;;;5150606;27;20523;-19
2022/06/06 15:12:03;;;;;;;6.00;1.40;;;;;;;;;;5150812;27;20426;-19
2022/06/06 15:14:31;;;;;;;8.80;1.67;;;;;;;;;;5143597;27;20410;-19
2022/06/06 15:17:00;;;;;;;10.55;1.58;;;;;;;;;;5149995;27;20411;-19
2022/06/06 15:19:30;;;;;;;10.13;1.63;;;;;;;;;;5153846;27;20252;-19
2022/06/06 15:21:57;;;;;;;5.60;1.85;;;;;;;;;;5151418;27;20231;-19
2022/06/06 15:24:25;;;;;;;3.85;1.55;;;;;;;;;;5154066;27;20242;-19
2022/06/06 15:27:10;;;;;;;7.43;1.50;;;;;;;;;;5154141;27;20239;-19